createdAt,value
2023-05-07T00:00:30.538Z,100964.54
2023-05-07T00:05:32.076Z,100966.73
2023-05-07T00:10:33.594Z,100973.55
2023-05-07T00:15:35.106Z,100971.81
2023-05-07T00:20:36.608Z,100968.40
2023-05-07T00:25:38.087Z,100970.95
2023-05-07T00:30:46.570Z,100973.15
2023-05-07T00:35:48.033Z,100979.59
2023-05-07T00:40:49.576Z,100981.11
2023-05-07T00:45:51.390Z,100980.59
2023-05-07T00:50:53.519Z,100983.13
2023-05-07T00:55:55.888Z,100982.09
2023-05-07T01:00:59.354Z,100984.64
2023-05-07T01:06:02.308Z,100989.94
2023-05-07T01:11:04.791Z,100992.14
2023-05-07T01:16:07.635Z,100995.37
2023-05-07T01:21:12.376Z,100993.98
2023-05-07T01:26:13.877Z,100996.02
2023-05-07T01:31:16.569Z,100992.80
2023-05-07T01:36:22.099Z,100991.09
2023-05-07T01:41:23.739Z,100990.20
2023-05-07T01:46:27.318Z,100993.12
2023-05-07T01:51:28.933Z,100992.59
2023-05-07T01:56:31.149Z,100992.42
2023-05-07T02:01:32.709Z,101001.31
2023-05-07T02:06:34.275Z,101007.62
2023-05-07T02:11:36.137Z,101008.30
2023-05-07T02:16:37.718Z,101009.00
2023-05-07T02:21:39.380Z,101011.22
2023-05-07T02:26:42.413Z,101006.27
2023-05-07T02:31:43.966Z,101008.48
2023-05-07T02:36:46.554Z,101006.27
2023-05-07T02:41:48.045Z,101004.39
2023-05-07T02:46:49.530Z,101007.12
2023-05-07T02:51:51.029Z,101004.58
2023-05-07T02:56:52.543Z,101012.09
2023-05-07T03:01:54.041Z,101020.43
2023-05-07T03:06:55.871Z,101017.55
2023-05-07T03:11:58.123Z,101024.73
2023-05-07T03:16:59.662Z,101025.58
2023-05-07T03:22:01.433Z,101028.84
2023-05-07T03:27:03.013Z,101032.59
2023-05-07T03:32:05.033Z,101035.33
2023-05-07T03:37:06.547Z,101045.39
2023-05-07T03:42:08.148Z,101052.21
2023-05-07T03:47:11.209Z,101056.33
2023-05-07T03:52:12.721Z,101057.34
2023-05-07T03:57:14.184Z,101059.20
2023-05-07T04:02:15.935Z,101066.18
2023-05-07T04:07:17.485Z,101070.08
2023-05-07T04:12:19.094Z,101069.25
2023-05-07T04:17:20.947Z,101078.99
2023-05-07T04:22:22.610Z,101086.67
2023-05-07T04:27:24.098Z,101089.08
2023-05-07T04:32:26.072Z,101093.86
2023-05-07T04:37:27.736Z,101094.75
2023-05-07T04:42:29.241Z,101099.21
2023-05-07T04:47:30.759Z,101105.40
2023-05-07T04:52:32.374Z,101103.42
2023-05-07T04:57:34.150Z,101109.63
2023-05-07T05:02:36.006Z,101120.41
2023-05-07T05:07:37.685Z,101126.20
2023-05-07T05:12:39.439Z,101132.50
2023-05-07T05:17:41.467Z,101140.56
2023-05-07T05:22:43.326Z,101146.59
2023-05-07T05:27:44.858Z,101148.70
2023-05-07T05:32:46.387Z,101157.42
2023-05-07T05:37:47.988Z,101162.70
2023-05-07T05:42:49.494Z,101169.52
2023-05-07T05:47:51.278Z,101172.60
2023-05-07T05:52:52.886Z,101175.91
2023-05-07T05:57:54.604Z,101173.94
2023-05-07T06:02:56.372Z,101176.24
2023-05-07T06:07:57.919Z,101176.55
2023-05-07T06:12:59.432Z,101179.18
2023-05-07T06:18:00.965Z,101182.38
2023-05-07T06:23:02.477Z,101189.08
2023-05-07T06:28:04.046Z,101195.58
2023-05-07T06:33:05.602Z,101199.84
2023-05-07T06:38:07.075Z,101202.58
2023-05-07T06:43:08.554Z,101202.34
2023-05-07T06:48:10.053Z,101202.84
2023-05-07T06:53:11.580Z,101198.01
2023-05-07T06:58:13.177Z,101202.84
2023-05-07T07:03:14.734Z,101198.25
2023-05-07T07:08:18.181Z,101193.80
2023-05-07T07:13:20.404Z,101203.23
2023-05-07T07:18:22.305Z,101214.70
2023-05-07T07:23:24.662Z,101228.88
2023-05-07T07:28:26.371Z,101238.11
2023-05-07T07:33:27.955Z,101244.98
2023-05-07T07:38:29.504Z,101253.51
2023-05-07T07:43:31.015Z,101254.51
2023-05-07T07:48:34.132Z,101262.03
2023-05-07T07:53:36.001Z,101263.63
2023-05-07T07:58:38.974Z,101261.39
2023-05-07T08:03:40.596Z,101258.33
2023-05-07T08:08:42.258Z,101268.29
2023-05-07T08:13:44.066Z,101271.21
2023-05-07T08:18:45.945Z,101276.52
2023-05-07T08:23:47.473Z,101279.27
2023-05-07T08:28:49.213Z,101281.50
2023-05-07T08:33:51.601Z,101276.19
2023-05-07T08:38:53.904Z,101280.31
2023-05-07T08:44:01.269Z,101284.27
2023-05-07T08:49:03.729Z,101286.33
2023-05-07T08:54:06.534Z,101291.66
2023-05-07T08:59:08.193Z,101302.28
2023-05-07T09:04:10.951Z,101311.37
2023-05-07T09:09:15.861Z,101307.27
2023-05-07T09:14:18.048Z,101311.86
2023-05-07T09:19:26.357Z,101312.89
2023-05-07T09:24:29.619Z,101317.71
2023-05-07T09:29:36.238Z,101319.95
2023-05-07T09:34:37.993Z,101323.05
2023-05-07T09:39:47.230Z,101328.57
2023-05-07T09:44:48.902Z,101336.27
2023-05-07T09:49:51.165Z,101342.45
2023-05-07T09:54:54.483Z,101341.95
2023-05-07T09:59:59.108Z,101346.39
2023-05-07T10:05:02.800Z,101354.60
2023-05-07T10:10:05.955Z,101360.09
2023-05-07T10:15:09.239Z,101363.70
2023-05-07T10:20:11.807Z,101366.96
2023-05-07T10:25:24.056Z,101362.24
2023-05-07T10:30:29.414Z,101366.66
2023-05-07T10:35:40.074Z,101375.65
2023-05-07T10:40:41.590Z,101373.64
2023-05-07T10:45:43.220Z,101376.20
2023-05-07T10:50:49.197Z,101379.64
2023-05-07T10:55:53.694Z,101380.15
2023-05-07T11:01:00.483Z,101384.11
2023-05-07T11:06:15.977Z,101390.63
2023-05-07T11:11:17.597Z,101392.71
2023-05-07T11:16:24.124Z,101395.63
2023-05-07T11:21:42.083Z,101398.34
2023-05-07T11:26:49.607Z,101396.10
2023-05-07T11:31:53.216Z,101404.86
2023-05-07T11:36:54.954Z,101404.19
2023-05-07T11:41:56.767Z,101404.55
2023-05-07T11:46:59.291Z,101403.63
2023-05-07T11:52:01.371Z,101413.91
2023-05-07T11:57:03.251Z,101418.52
2023-05-07T12:02:04.941Z,101419.02
2023-05-07T12:07:07.116Z,101417.17
2023-05-07T12:12:08.899Z,101419.91
2023-05-07T12:17:12.143Z,101421.23
2023-05-07T12:22:14.118Z,101427.02
2023-05-07T12:27:16.967Z,101426.30
2023-05-07T12:32:21.508Z,101434.89
2023-05-07T12:37:29.038Z,101436.11
2023-05-07T12:42:43.515Z,101432.02
2023-05-07T12:47:48.632Z,101432.80
2023-05-07T12:52:50.620Z,101440.48
2023-05-07T12:57:53.779Z,101439.62
2023-05-07T13:02:55.344Z,101437.58
2023-05-07T13:07:57.790Z,101446.55
2023-05-07T13:13:02.440Z,101441.36
2023-05-07T13:18:04.259Z,101438.89
2023-05-07T13:23:05.883Z,101445.21
2023-05-07T13:28:11.158Z,101444.08
2023-05-07T13:33:13.527Z,101444.95
2023-05-07T13:38:16.906Z,101442.86
2023-05-07T13:43:19.878Z,101437.34
2023-05-07T13:48:21.378Z,101437.52
2023-05-07T13:53:22.980Z,101433.34
2023-05-07T13:58:24.691Z,101429.05
2023-05-07T14:03:26.238Z,101437.04
2023-05-07T14:08:31.678Z,101433.34
2023-05-07T14:13:35.465Z,101443.42
2023-05-07T14:18:38.179Z,101450.94
2023-05-07T14:23:39.846Z,101455.05
2023-05-07T14:28:42.134Z,101460.83
2023-05-07T14:33:43.649Z,101464.77
2023-05-07T14:38:45.966Z,101465.71
2023-05-07T14:43:51.008Z,101464.64
2023-05-07T14:48:52.684Z,101455.05
2023-05-07T14:53:54.155Z,101462.61
2023-05-07T14:58:55.844Z,101464.73
2023-05-07T15:03:57.522Z,101468.73
2023-05-07T15:08:59.375Z,101461.95
2023-05-07T15:14:00.968Z,101461.06
2023-05-07T15:19:02.857Z,101460.83
2023-05-07T15:24:04.509Z,101470.56
2023-05-07T15:29:11.064Z,101471.35
2023-05-07T15:34:13.023Z,101473.83
2023-05-07T15:39:14.595Z,101472.48
2023-05-07T15:44:16.093Z,101475.52
2023-05-07T15:49:17.848Z,101477.10
2023-05-07T15:54:21.149Z,101475.34
2023-05-07T15:59:22.821Z,101475.21
2023-05-07T16:04:24.626Z,101472.94
2023-05-07T16:09:27.233Z,101474.25
2023-05-07T16:14:28.815Z,101478.17
2023-05-07T16:19:30.431Z,101471.00
2023-05-07T16:24:32.727Z,101472.73
2023-05-07T16:29:34.245Z,101467.31
2023-05-07T16:34:35.779Z,101458.58
2023-05-07T16:39:38.697Z,101467.05
2023-05-07T16:44:40.353Z,101479.72
2023-05-07T16:49:41.848Z,101482.59
2023-05-07T16:54:43.334Z,101485.66
2023-05-07T16:59:44.838Z,101485.20
2023-05-07T17:04:46.304Z,101493.50
2023-05-07T17:09:47.975Z,101498.34
2023-05-07T17:14:49.723Z,101496.21
2023-05-07T17:19:51.237Z,101494.09
2023-05-07T17:24:52.960Z,101492.89
2023-05-07T17:29:54.768Z,101499.32
2023-05-07T17:34:57.026Z,101507.34
2023-05-07T17:39:58.563Z,101510.66
2023-05-07T17:45:00.209Z,101519.23
2023-05-07T17:50:02.998Z,101519.34
2023-05-07T17:55:05.447Z,101524.42
2023-05-07T18:00:07.827Z,101531.70
2023-05-07T18:05:09.852Z,101535.85
2023-05-07T18:10:11.603Z,101542.56
2023-05-07T18:15:13.313Z,101549.76
2023-05-07T18:20:14.978Z,101557.81
2023-05-07T18:25:16.462Z,101563.61
2023-05-07T18:30:25.280Z,101570.26
2023-05-07T18:35:26.770Z,101573.11
2023-05-07T18:40:28.501Z,101578.86
2023-05-07T18:45:30.150Z,101580.52
2023-05-07T18:50:31.632Z,101577.88
2023-05-07T18:55:33.125Z,101579.55
2023-05-07T19:00:37.574Z,101590.29
2023-05-07T19:05:39.111Z,101599.45
2023-05-07T19:10:40.622Z,101604.67
2023-05-07T19:15:42.204Z,101608.04
2023-05-07T19:20:43.845Z,101612.60
2023-05-07T19:25:45.499Z,101618.84
2023-05-07T19:30:49.944Z,101619.95
2023-05-07T19:35:54.010Z,101627.05
2023-05-07T19:40:55.888Z,101630.41
2023-05-07T19:45:57.440Z,101631.87
2023-05-07T19:51:01.909Z,101636.23
2023-05-07T19:56:04.864Z,101643.70
2023-05-07T20:01:06.789Z,101646.55
2023-05-07T20:06:08.461Z,101648.66
2023-05-07T20:11:11.525Z,101644.27
2023-05-07T20:16:13.187Z,101646.77
2023-05-07T20:21:15.539Z,101655.88
2023-05-07T20:26:17.052Z,101656.45
2023-05-07T20:31:19.136Z,101665.56
2023-05-07T20:36:20.750Z,101666.64
2023-05-07T20:41:24.739Z,101665.48
2023-05-07T20:46:27.552Z,101668.96
2023-05-07T20:51:30.437Z,101675.35
2023-05-07T20:56:31.922Z,101688.70
2023-05-07T21:01:34.586Z,101690.45
2023-05-07T21:06:36.325Z,101694.39
2023-05-07T21:11:37.858Z,101698.59
2023-05-07T21:16:40.779Z,101699.32
2023-05-07T21:21:43.099Z,101708.23
2023-05-07T21:26:44.644Z,101716.63
2023-05-07T21:31:46.390Z,101722.69
2023-05-07T21:36:47.892Z,101724.87
2023-05-07T21:41:49.476Z,101731.80
2023-05-07T21:46:51.311Z,101737.33
2023-05-07T21:51:52.872Z,101735.80
2023-05-07T21:56:54.354Z,101741.19
2023-05-07T22:01:55.976Z,101743.84
2023-05-07T22:06:57.634Z,101747.48
2023-05-07T22:11:59.263Z,101746.77
2023-05-07T22:17:00.969Z,101746.72
2023-05-07T22:22:02.766Z,101750.02
2023-05-07T22:27:04.276Z,101749.80
2023-05-07T22:32:05.804Z,101750.73
2023-05-07T22:37:07.379Z,101749.77
2023-05-07T22:42:08.962Z,101752.25
2023-05-07T22:47:10.781Z,101750.77
2023-05-07T22:52:12.310Z,101749.13
2023-05-07T22:57:13.805Z,101750.29
2023-05-07T23:02:15.450Z,101758.80
2023-05-07T23:07:16.989Z,101755.67
2023-05-07T23:12:18.574Z,101754.36
2023-05-07T23:17:20.091Z,101755.34
2023-05-07T23:22:21.852Z,101761.41
2023-05-07T23:27:23.352Z,101759.97
2023-05-07T23:32:24.898Z,101757.09
2023-05-07T23:37:26.540Z,101751.52
2023-05-07T23:42:28.101Z,101749.28
2023-05-07T23:47:30.577Z,101754.02
2023-05-07T23:52:32.345Z,101751.63
2023-05-07T23:57:33.874Z,101749.71
